createdAt,value
2022-09-16T00:00:20.230Z,15.05
2022-09-16T00:01:20.273Z,15.07
2022-09-16T00:02:20.182Z,15.02
2022-09-16T00:03:20.097Z,14.99
2022-09-16T00:04:20.045Z,14.99
2022-09-16T00:05:20.004Z,15.11
2022-09-16T00:06:19.953Z,14.99
2022-09-16T00:07:19.909Z,15.04
2022-09-16T00:08:19.862Z,15.05
2022-09-16T00:09:19.816Z,15.02
2022-09-16T00:10:19.770Z,15.04
2022-09-16T00:11:19.726Z,14.99
2022-09-16T00:12:19.681Z,15.02
2022-09-16T00:13:19.655Z,14.99
2022-09-16T00:14:19.591Z,14.97
2022-09-16T00:15:19.542Z,14.97
2022-09-16T00:16:19.576Z,15.04
2022-09-16T00:17:19.457Z,15.00
2022-09-16T00:18:19.406Z,15.00
2022-09-16T00:19:19.370Z,15.04
2022-09-16T00:20:19.314Z,15.02
2022-09-16T00:21:19.267Z,14.97
2022-09-16T00:22:19.223Z,15.00
2022-09-16T00:23:19.182Z,15.05
2022-09-16T00:24:19.132Z,15.02
2022-09-16T00:25:19.085Z,15.00
2022-09-16T00:26:19.039Z,14.99
2022-09-16T00:27:18.995Z,14.94
2022-09-16T00:28:18.947Z,14.97
2022-09-16T00:29:18.928Z,14.99
2022-09-16T00:30:18.856Z,15.00
2022-09-16T00:31:18.874Z,14.94
2022-09-16T00:32:18.767Z,14.99
2022-09-16T00:33:18.720Z,14.99
2022-09-16T00:34:18.677Z,14.99
2022-09-16T00:35:18.632Z,14.99
2022-09-16T00:36:18.585Z,14.99
2022-09-16T00:37:18.535Z,15.00
2022-09-16T00:38:18.490Z,14.97
2022-09-16T00:39:18.445Z,14.97
2022-09-16T00:40:18.456Z,15.00
2022-09-16T00:41:18.357Z,14.99
2022-09-16T00:42:18.306Z,14.99
2022-09-16T00:43:18.260Z,15.00
2022-09-16T00:44:18.216Z,14.90
2022-09-16T00:45:18.196Z,14.94
2022-09-16T00:46:18.165Z,14.96
2022-09-16T00:47:18.078Z,14.93
2022-09-16T00:48:18.033Z,14.87
2022-09-16T00:49:17.985Z,14.93
2022-09-16T00:50:17.946Z,14.90
2022-09-16T00:51:17.896Z,14.82
2022-09-16T00:52:17.850Z,14.90
2022-09-16T00:53:17.800Z,14.89
2022-09-16T00:54:17.758Z,14.82
2022-09-16T00:55:17.714Z,14.89
2022-09-16T00:56:17.668Z,14.82
2022-09-16T00:57:17.628Z,14.89
2022-09-16T00:58:17.580Z,14.87
2022-09-16T00:59:17.529Z,14.86
2022-09-16T01:00:17.487Z,14.86
2022-09-16T01:01:17.553Z,14.81
2022-09-16T01:02:17.506Z,14.87
2022-09-16T01:03:17.346Z,14.79
2022-09-16T01:04:17.306Z,14.82
2022-09-16T01:05:17.251Z,14.85
2022-09-16T01:06:17.207Z,14.87
2022-09-16T01:07:17.167Z,14.81
2022-09-16T01:08:17.122Z,14.86
2022-09-16T01:09:17.067Z,14.78
2022-09-16T01:10:17.032Z,14.86
2022-09-16T01:11:16.983Z,14.77
2022-09-16T01:12:16.935Z,14.82
2022-09-16T01:13:16.884Z,14.87
2022-09-16T01:14:16.849Z,14.78
2022-09-16T01:15:16.795Z,14.89
2022-09-16T01:16:16.831Z,14.81
2022-09-16T01:17:16.729Z,14.87
2022-09-16T01:18:16.657Z,14.78
2022-09-16T01:19:16.610Z,14.85
2022-09-16T01:20:16.567Z,14.86
2022-09-16T01:21:16.533Z,14.85
2022-09-16T01:22:16.474Z,14.87
2022-09-16T01:23:16.427Z,14.90
2022-09-16T01:24:16.383Z,14.87
2022-09-16T01:25:16.337Z,14.87
2022-09-16T01:26:16.291Z,14.86
2022-09-16T01:27:16.242Z,14.87
2022-09-16T01:28:16.199Z,14.82
2022-09-16T01:29:16.156Z,14.89
2022-09-16T01:30:16.129Z,14.74
2022-09-16T01:31:16.106Z,14.82
2022-09-16T01:32:16.019Z,14.73
2022-09-16T01:33:15.992Z,14.74
2022-09-16T01:34:15.928Z,14.73
2022-09-16T01:35:15.876Z,14.77
2022-09-16T01:36:15.832Z,14.73
2022-09-16T01:37:15.784Z,14.85
2022-09-16T01:38:15.740Z,14.73
2022-09-16T01:39:15.695Z,14.87
2022-09-16T01:40:15.682Z,14.66
2022-09-16T01:41:15.602Z,14.77
2022-09-16T01:42:15.558Z,14.86
2022-09-16T01:43:15.512Z,14.77
2022-09-16T01:44:15.465Z,14.73
2022-09-16T01:45:15.419Z,14.79
2022-09-16T01:46:15.414Z,14.79
2022-09-16T01:47:15.330Z,14.86
2022-09-16T01:48:15.286Z,14.81
2022-09-16T01:49:15.251Z,14.73
2022-09-16T01:50:15.194Z,14.78
2022-09-16T01:51:15.144Z,14.77
2022-09-16T01:52:15.098Z,14.73
2022-09-16T01:53:15.051Z,14.71
2022-09-16T01:54:15.009Z,14.73
2022-09-16T01:55:14.959Z,14.67
2022-09-16T01:56:14.914Z,14.67
2022-09-16T01:57:14.868Z,14.66
2022-09-16T01:58:14.831Z,14.63
2022-09-16T01:59:14.787Z,14.66
2022-09-16T02:00:14.740Z,14.73
2022-09-16T02:01:14.687Z,14.61
2022-09-16T02:02:14.741Z,14.61
2022-09-16T02:03:14.589Z,14.62
2022-09-16T02:04:14.546Z,14.66
2022-09-16T02:05:14.514Z,14.61
2022-09-16T02:06:14.455Z,14.66
2022-09-16T02:07:14.407Z,14.62
2022-09-16T02:08:14.362Z,14.62
2022-09-16T02:09:14.316Z,14.52
2022-09-16T02:10:14.269Z,14.53
2022-09-16T02:11:14.223Z,14.58
2022-09-16T02:12:14.385Z,14.49
2022-09-16T02:13:14.130Z,14.59
2022-09-16T02:14:14.093Z,14.55
2022-09-16T02:15:14.040Z,14.53
2022-09-16T02:16:14.013Z,14.56
2022-09-16T02:17:13.948Z,14.59
2022-09-16T02:18:13.904Z,14.58
2022-09-16T02:19:13.856Z,14.58
2022-09-16T02:20:13.810Z,14.61
2022-09-16T02:21:13.781Z,14.55
2022-09-16T02:22:13.720Z,14.53
2022-09-16T02:23:13.673Z,14.61
2022-09-16T02:24:13.627Z,14.52
2022-09-16T02:25:13.581Z,14.53
2022-09-16T02:26:13.534Z,14.48
2022-09-16T02:27:13.487Z,14.49
2022-09-16T02:28:13.442Z,14.49
2022-09-16T02:29:13.394Z,14.55
2022-09-16T02:30:13.352Z,14.44
2022-09-16T02:31:13.485Z,14.49
2022-09-16T02:32:13.261Z,14.49
2022-09-16T02:33:13.213Z,14.53
2022-09-16T02:34:13.167Z,14.41
2022-09-16T02:35:13.119Z,14.49
2022-09-16T02:36:13.077Z,14.53
2022-09-16T02:37:13.045Z,14.52
2022-09-16T02:38:12.983Z,14.51
2022-09-16T02:39:12.937Z,14.55
2022-09-16T02:40:12.953Z,14.38
2022-09-16T02:41:12.844Z,14.52
2022-09-16T02:42:12.799Z,14.41
2022-09-16T02:43:12.751Z,14.48
2022-09-16T02:44:12.710Z,14.48
2022-09-16T02:45:12.662Z,14.52
2022-09-16T02:46:12.663Z,14.43
2022-09-16T02:47:12.566Z,14.45
2022-09-16T02:48:12.523Z,14.49
2022-09-16T02:49:12.478Z,14.52
2022-09-16T02:50:12.430Z,14.55
2022-09-16T02:51:12.383Z,14.52
2022-09-16T02:52:12.339Z,14.40
2022-09-16T02:53:12.309Z,14.38
2022-09-16T02:54:12.247Z,14.40
2022-09-16T02:55:12.199Z,14.49
2022-09-16T02:56:12.155Z,14.48
2022-09-16T02:57:12.107Z,14.43
2022-09-16T02:58:12.065Z,14.48
2022-09-16T02:59:12.016Z,14.51
2022-09-16T03:00:11.974Z,14.49
2022-09-16T03:01:11.923Z,14.44
2022-09-16T03:02:11.919Z,14.52
2022-09-16T03:03:11.926Z,14.41
2022-09-16T03:04:11.788Z,14.52
2022-09-16T03:05:11.739Z,14.45
2022-09-16T03:06:11.696Z,14.49
2022-09-16T03:07:11.647Z,14.53
2022-09-16T03:08:11.602Z,14.51
2022-09-16T03:09:11.574Z,14.51
2022-09-16T03:10:11.513Z,14.40
2022-09-16T03:11:11.462Z,14.52
2022-09-16T03:12:11.421Z,14.49
2022-09-16T03:13:11.372Z,14.45
2022-09-16T03:14:11.326Z,14.48
2022-09-16T03:15:11.279Z,14.48
2022-09-16T03:16:11.306Z,14.49
2022-09-16T03:17:11.188Z,14.45
2022-09-16T03:18:11.147Z,14.44
2022-09-16T03:19:11.098Z,14.43
2022-09-16T03:20:11.051Z,14.45
2022-09-16T03:21:11.004Z,14.44
2022-09-16T03:22:10.959Z,14.52
2022-09-16T03:23:10.909Z,14.40
2022-09-16T03:24:10.871Z,14.52
2022-09-16T03:25:10.837Z,14.48
2022-09-16T03:26:10.775Z,14.44
2022-09-16T03:27:10.731Z,14.55
2022-09-16T03:28:10.688Z,14.36
2022-09-16T03:29:10.635Z,14.36
2022-09-16T03:30:10.602Z,14.38
2022-09-16T03:31:10.654Z,14.38
2022-09-16T03:32:10.506Z,14.36
2022-09-16T03:33:10.454Z,14.37
2022-09-16T03:34:10.411Z,14.41
2022-09-16T03:35:10.359Z,14.34
2022-09-16T03:36:10.316Z,14.34
2022-09-16T03:37:10.267Z,14.36
2022-09-16T03:38:10.221Z,14.37
2022-09-16T03:39:10.190Z,14.36
2022-09-16T03:40:10.216Z,14.34
2022-09-16T03:41:10.101Z,14.40
2022-09-16T03:42:10.037Z,14.33
2022-09-16T03:43:09.993Z,14.30
2022-09-16T03:44:09.948Z,14.25
2022-09-16T03:45:09.899Z,14.33
2022-09-16T03:46:09.902Z,14.28
2022-09-16T03:47:09.805Z,14.37
2022-09-16T03:48:09.762Z,14.25
2022-09-16T03:49:09.713Z,14.31
2022-09-16T03:50:09.672Z,14.25
2022-09-16T03:51:09.624Z,14.34
2022-09-16T03:52:09.578Z,14.31
2022-09-16T03:53:09.530Z,14.26
2022-09-16T03:54:09.487Z,14.31
2022-09-16T03:55:09.439Z,14.28
2022-09-16T03:56:09.392Z,14.26
2022-09-16T03:57:09.362Z,14.30
2022-09-16T03:58:09.300Z,14.30
2022-09-16T03:59:09.253Z,14.34
2022-09-16T04:00:09.209Z,14.30
2022-09-16T04:01:09.219Z,14.26
2022-09-16T04:02:09.116Z,14.26
2022-09-16T04:03:09.103Z,14.37
2022-09-16T04:04:09.027Z,14.33
2022-09-16T04:05:09.020Z,14.31
2022-09-16T04:06:08.932Z,14.28
2022-09-16T04:07:08.885Z,14.28
2022-09-16T04:08:08.841Z,14.25
2022-09-16T04:09:08.791Z,14.28
2022-09-16T04:10:08.750Z,14.28
2022-09-16T04:11:08.698Z,14.26
2022-09-16T04:12:08.659Z,14.33
2022-09-16T04:13:08.625Z,14.34
2022-09-16T04:14:08.564Z,14.23
2022-09-16T04:15:08.517Z,14.25
2022-09-16T04:16:08.511Z,14.23
2022-09-16T04:17:08.422Z,14.34
2022-09-16T04:18:08.380Z,14.23
2022-09-16T04:19:08.331Z,14.31
2022-09-16T04:21:08.239Z,14.20
2022-09-16T04:22:08.193Z,14.26
2022-09-16T04:23:08.152Z,14.19
2022-09-16T04:24:12.640Z,14.25
2022-09-16T04:25:08.056Z,14.23
2022-09-16T04:26:08.007Z,14.19
2022-09-16T04:27:07.963Z,14.28
2022-09-16T04:28:07.918Z,14.20
2022-09-16T04:29:07.892Z,14.23
2022-09-16T04:30:07.825Z,14.22
2022-09-16T04:31:07.808Z,14.19
2022-09-16T04:32:07.936Z,14.18
2022-09-16T04:33:07.687Z,14.19
2022-09-16T04:34:07.645Z,14.22
2022-09-16T04:35:07.597Z,14.20
2022-09-16T04:36:07.548Z,14.20
2022-09-16T04:37:07.505Z,14.20
2022-09-16T04:38:07.458Z,14.19
2022-09-16T04:39:07.413Z,14.15
2022-09-16T04:40:07.435Z,14.20
2022-09-16T04:41:07.318Z,14.23
2022-09-16T04:42:07.272Z,14.20
2022-09-16T04:43:07.224Z,14.20
2022-09-16T04:44:07.181Z,14.20
2022-09-16T04:45:07.148Z,14.18
2022-09-16T04:46:07.156Z,14.25
2022-09-16T04:47:07.042Z,14.20
2022-09-16T04:48:06.997Z,14.20
2022-09-16T04:49:06.946Z,14.19
2022-09-16T04:50:07.108Z,14.20
2022-09-16T04:51:06.855Z,14.20
2022-09-16T04:52:06.817Z,14.19
2022-09-16T04:53:06.763Z,14.25
2022-09-16T04:54:06.720Z,14.26
2022-09-16T04:55:06.671Z,14.20
2022-09-16T04:56:06.626Z,14.22
2022-09-16T04:57:06.579Z,14.26
2022-09-16T04:58:06.536Z,14.20
2022-09-16T04:59:06.490Z,14.20
2022-09-16T05:00:06.441Z,14.19
2022-09-16T05:01:06.502Z,14.18
2022-09-16T05:02:06.350Z,14.22
2022-09-16T05:03:06.329Z,14.22
2022-09-16T05:04:06.266Z,14.20
2022-09-16T05:06:06.162Z,14.18
2022-09-16T05:07:06.118Z,14.25
2022-09-16T05:08:06.072Z,14.26
2022-09-16T05:09:06.028Z,14.20
2022-09-16T05:10:05.982Z,14.28
2022-09-16T05:11:05.932Z,14.22
2022-09-16T05:12:05.886Z,14.20
2022-09-16T05:13:05.840Z,14.18
2022-09-16T05:14:05.792Z,14.18
2022-09-16T05:15:05.749Z,14.22
2022-09-16T05:16:05.768Z,14.28
2022-09-16T05:17:05.770Z,14.18
2022-09-16T05:18:05.610Z,14.20
2022-09-16T05:19:05.565Z,14.20
2022-09-16T05:20:05.523Z,14.22
2022-09-16T05:21:05.470Z,14.20
2022-09-16T05:22:05.429Z,14.19
2022-09-16T05:23:05.379Z,14.19
2022-09-16T05:24:05.334Z,14.18
2022-09-16T05:25:05.290Z,14.22
2022-09-16T05:26:05.237Z,14.18
2022-09-16T05:27:05.194Z,14.15
2022-09-16T05:28:05.148Z,14.20
2022-09-16T05:29:05.102Z,14.05
2022-09-16T05:30:05.089Z,14.13
2022-09-16T05:31:05.070Z,14.16
2022-09-16T05:32:04.968Z,14.16
2022-09-16T05:33:05.030Z,14.07
2022-09-16T05:34:04.871Z,14.07
2022-09-16T05:35:04.828Z,14.11
2022-09-16T05:36:04.780Z,14.11
2022-09-16T05:37:04.733Z,14.12
2022-09-16T05:38:04.684Z,14.12
2022-09-16T05:39:22.646Z,14.11
2022-09-16T05:40:04.638Z,14.07
2022-09-16T05:41:04.548Z,14.03
2022-09-16T05:42:04.504Z,14.08
2022-09-16T05:43:04.457Z,14.04
2022-09-16T05:44:04.411Z,14.01
2022-09-16T05:45:04.370Z,14.03
2022-09-16T05:46:04.416Z,14.15
2022-09-16T05:47:04.277Z,14.07
2022-09-16T05:48:04.230Z,14.07
2022-09-16T05:49:04.293Z,14.15
2022-09-16T05:50:04.137Z,14.15
2022-09-16T05:51:04.091Z,14.18
2022-09-16T05:52:04.041Z,14.19
2022-09-16T05:53:03.993Z,14.19
2022-09-16T05:54:03.953Z,14.20
2022-09-16T05:55:03.904Z,14.23
2022-09-16T05:56:03.861Z,14.23
2022-09-16T05:57:06.962Z,14.22
2022-09-16T05:58:03.762Z,14.25
2022-09-16T05:59:03.721Z,14.22
2022-09-16T06:00:03.671Z,14.28
2022-09-16T06:01:03.655Z,14.31
2022-09-16T06:02:03.744Z,14.30
2022-09-16T06:03:03.534Z,14.31
2022-09-16T06:04:03.485Z,14.33
2022-09-16T06:05:03.568Z,14.28
2022-09-16T06:06:03.392Z,14.26
2022-09-16T06:07:03.349Z,14.30
2022-09-16T06:08:03.301Z,14.34
2022-09-16T06:09:03.260Z,14.34
2022-09-16T06:10:03.210Z,14.37
2022-09-16T06:11:03.170Z,14.37
2022-09-16T06:12:03.128Z,14.37
2022-09-16T06:13:03.074Z,14.31
2022-09-16T06:14:03.039Z,14.40
2022-09-16T06:15:02.982Z,14.33
2022-09-16T06:16:03.077Z,14.38
2022-09-16T06:17:02.890Z,14.34
2022-09-16T06:18:06.261Z,14.37
2022-09-16T06:19:02.800Z,14.40
2022-09-16T06:20:02.748Z,14.38
2022-09-16T06:21:02.817Z,14.49
2022-09-16T06:22:02.654Z,14.52
2022-09-16T06:23:02.610Z,14.48
2022-09-16T06:24:02.563Z,14.44
2022-09-16T06:25:02.521Z,14.51
2022-09-16T06:26:02.472Z,14.48
2022-09-16T06:27:02.433Z,14.48
2022-09-16T06:28:02.379Z,14.43
2022-09-16T06:29:02.344Z,14.40
2022-09-16T06:30:02.308Z,14.51
2022-09-16T06:31:02.304Z,14.51
2022-09-16T06:32:02.194Z,14.49
2022-09-16T06:33:02.154Z,14.49
2022-09-16T06:34:02.101Z,14.41
2022-09-16T06:35:02.058Z,14.52
2022-09-16T06:36:02.009Z,14.52
2022-09-16T06:37:02.080Z,14.59
2022-09-16T06:38:01.917Z,14.55
2022-09-16T06:39:01.873Z,14.59
2022-09-16T06:40:01.913Z,14.59
2022-09-16T06:41:01.779Z,14.56
2022-09-16T06:42:01.733Z,14.62
2022-09-16T06:43:01.688Z,14.71
2022-09-16T06:44:01.645Z,14.67
2022-09-16T06:45:01.596Z,14.68
2022-09-16T06:46:01.594Z,14.74
2022-09-16T06:47:01.505Z,14.74
2022-09-16T06:48:01.458Z,14.77
2022-09-16T06:49:05.454Z,14.79
2022-09-16T06:50:01.368Z,14.78
2022-09-16T06:51:01.321Z,14.63
2022-09-16T06:52:01.275Z,14.70
2022-09-16T06:53:01.343Z,14.81
2022-09-16T06:54:01.182Z,14.87
2022-09-16T06:55:01.140Z,14.81
2022-09-16T06:56:01.090Z,14.86
2022-09-16T06:57:01.046Z,14.87
2022-09-16T06:58:00.999Z,14.96
2022-09-16T06:59:00.956Z,14.94
2022-09-16T07:00:00.908Z,14.99
2022-09-16T07:01:00.923Z,15.00
2022-09-16T07:02:00.875Z,14.99
2022-09-16T07:03:00.770Z,15.07
2022-09-16T07:04:00.724Z,15.08
2022-09-16T07:05:00.678Z,15.10
2022-09-16T07:06:00.631Z,15.11
2022-09-16T07:07:16.053Z,15.12
2022-09-16T07:08:00.544Z,15.12
2022-09-16T07:09:00.614Z,15.15
2022-09-16T07:10:00.447Z,15.23
2022-09-16T07:11:00.406Z,15.11
2022-09-16T07:12:00.355Z,15.25
2022-09-16T07:13:00.310Z,15.19
2022-09-16T07:14:00.263Z,15.14
2022-09-16T07:15:00.220Z,15.22
2022-09-16T07:16:12.943Z,15.23
2022-09-16T07:17:00.211Z,15.19
2022-09-16T07:18:00.108Z,15.26
2022-09-16T07:19:01.128Z,15.22
2022-09-16T07:19:59.990Z,15.18
2022-09-16T07:20:59.944Z,15.27
2022-09-16T07:21:59.900Z,15.23
2022-09-16T07:22:59.856Z,15.22
2022-09-16T07:23:59.809Z,15.22
2022-09-16T07:24:59.882Z,15.25
2022-09-16T07:25:59.717Z,15.32
2022-09-16T07:26:59.670Z,15.27
2022-09-16T07:27:59.625Z,15.30
2022-09-16T07:28:59.583Z,15.30
2022-09-16T07:30:00.309Z,15.32
2022-09-16T07:30:59.531Z,15.39
2022-09-16T07:31:59.442Z,15.47
2022-09-16T07:32:59.403Z,15.35
2022-09-16T07:34:03.668Z,15.36
2022-09-16T07:34:59.307Z,15.37
2022-09-16T07:35:59.274Z,15.35
2022-09-16T07:36:59.214Z,15.41
2022-09-16T07:37:59.479Z,15.36
2022-09-16T07:38:59.124Z,15.39
2022-09-16T07:39:59.120Z,15.48
2022-09-16T07:40:59.181Z,15.63
2022-09-16T07:42:01.598Z,15.54
2022-09-16T07:42:58.947Z,15.62
2022-09-16T07:43:58.897Z,15.54
2022-09-16T07:44:58.852Z,15.51
2022-09-16T07:45:58.863Z,15.50
2022-09-16T07:46:58.757Z,15.50
2022-09-16T07:47:58.710Z,15.67
2022-09-16T07:48:58.669Z,15.63
2022-09-16T07:49:58.618Z,15.54
2022-09-16T07:50:58.576Z,15.60
2022-09-16T07:51:58.528Z,15.67
2022-09-16T07:52:58.484Z,15.63
2022-09-16T07:53:58.438Z,15.72
2022-09-16T07:54:58.392Z,15.70
2022-09-16T07:55:58.349Z,15.76
2022-09-16T07:56:58.423Z,15.70
2022-09-16T07:57:58.254Z,15.81
2022-09-16T07:58:58.210Z,15.81
2022-09-16T07:59:58.166Z,15.91
2022-09-16T08:01:03.366Z,15.90
2022-09-16T08:01:58.201Z,15.98
2022-09-16T08:02:58.096Z,15.98
2022-09-16T08:03:57.986Z,15.87
2022-09-16T08:04:57.950Z,16.03
2022-09-16T08:05:57.889Z,16.03
2022-09-16T08:06:57.858Z,16.03
2022-09-16T08:07:57.799Z,16.03
2022-09-16T08:09:02.411Z,16.09
2022-09-16T08:09:57.707Z,16.16
2022-09-16T08:10:57.668Z,16.22
2022-09-16T08:11:57.618Z,16.13
2022-09-16T08:12:57.693Z,16.16
2022-09-16T08:13:57.610Z,16.16
2022-09-16T08:14:57.487Z,16.18
2022-09-16T08:15:57.439Z,16.25
2022-09-16T08:16:57.427Z,16.17
2022-09-16T08:17:57.351Z,16.28
2022-09-16T08:18:57.306Z,16.29
2022-09-16T08:19:57.257Z,16.24
2022-09-16T08:20:57.211Z,16.36
2022-09-16T08:21:57.163Z,16.36
2022-09-16T08:22:58.036Z,16.39
2022-09-16T08:23:57.226Z,16.40
2022-09-16T08:24:57.037Z,16.39
2022-09-16T08:25:56.983Z,16.41
2022-09-16T08:27:56.894Z,16.44
2022-09-16T08:29:08.306Z,16.54
2022-09-16T08:29:56.802Z,16.61
2022-09-16T08:30:56.758Z,16.59
2022-09-16T08:31:56.766Z,16.59
2022-09-16T08:32:56.666Z,16.77
2022-09-16T08:33:56.623Z,16.82
2022-09-16T08:34:56.578Z,16.79
2022-09-16T08:35:56.536Z,16.91
2022-09-16T08:36:56.486Z,16.87
2022-09-16T08:37:56.440Z,16.82
2022-09-16T08:38:56.554Z,16.80
2022-09-16T08:39:56.427Z,16.89
2022-09-16T08:40:56.308Z,16.91
2022-09-16T08:41:56.261Z,16.94
2022-09-16T08:42:56.221Z,16.91
2022-09-16T08:43:56.172Z,16.99
2022-09-16T08:44:56.253Z,17.05
2022-09-16T08:45:56.131Z,17.07
2022-09-16T08:46:56.043Z,17.12
2022-09-16T08:49:26.804Z,17.23
2022-09-16T08:50:26.759Z,17.24
2022-09-16T08:51:26.705Z,17.20
2022-09-16T08:52:26.670Z,17.22
2022-09-16T08:53:26.610Z,17.17
2022-09-16T08:54:26.564Z,17.22
2022-09-16T08:55:26.519Z,17.20
2022-09-16T08:56:26.476Z,17.24
2022-09-16T08:57:26.431Z,17.22
2022-09-16T08:58:26.387Z,17.20
2022-09-16T08:59:26.353Z,17.24
2022-09-16T09:00:26.422Z,17.24
2022-09-16T09:01:26.537Z,17.27
2022-09-16T09:02:26.656Z,17.41
2022-09-16T09:03:26.196Z,17.41
2022-09-16T09:04:26.117Z,17.35
2022-09-16T09:05:26.068Z,17.49
2022-09-16T09:06:26.032Z,17.46
2022-09-16T09:07:25.980Z,17.49
2022-09-16T09:08:25.937Z,17.49
2022-09-16T09:09:25.889Z,17.46
2022-09-16T09:10:25.856Z,17.53
2022-09-16T09:11:25.814Z,17.44
2022-09-16T09:12:26.874Z,17.54
2022-09-16T09:13:26.703Z,17.57
2022-09-16T09:14:25.668Z,17.59
2022-09-16T09:15:28.260Z,17.63
2022-09-16T09:16:25.779Z,17.69
2022-09-16T09:17:25.537Z,17.69
2022-09-16T09:18:25.488Z,17.73
2022-09-16T09:19:25.444Z,17.76
2022-09-16T09:20:25.400Z,17.84
2022-09-16T09:21:27.393Z,17.87
2022-09-16T09:22:25.310Z,17.87
2022-09-16T09:23:25.283Z,18.02
2022-09-16T09:24:25.223Z,18.00
2022-09-16T09:25:25.177Z,18.13
2022-09-16T09:26:25.133Z,18.15
2022-09-16T09:27:25.088Z,18.26
2022-09-16T09:28:25.043Z,18.33
2022-09-16T09:29:24.995Z,18.41
2022-09-16T09:30:24.955Z,18.41
2022-09-16T09:31:24.973Z,18.46
2022-09-16T09:32:25.003Z,18.43
2022-09-16T09:33:44.768Z,18.48
2022-09-16T09:34:24.776Z,18.55
2022-09-16T09:35:24.733Z,18.61
2022-09-16T09:36:24.686Z,18.52
2022-09-16T09:37:24.640Z,18.61
2022-09-16T09:38:24.599Z,18.58
2022-09-16T09:39:24.551Z,18.60
2022-09-16T09:40:24.528Z,18.57
2022-09-16T09:41:24.464Z,18.57
2022-09-16T09:42:24.422Z,18.61
2022-09-16T09:43:24.374Z,18.66
2022-09-16T09:44:24.333Z,18.57
2022-09-16T09:45:24.341Z,18.52
2022-09-16T09:46:24.275Z,18.43
2022-09-16T09:47:24.198Z,18.42
2022-09-16T09:48:24.289Z,18.37
2022-09-16T09:49:24.110Z,18.33
2022-09-16T09:50:24.068Z,18.41
2022-09-16T09:51:24.022Z,18.34
2022-09-16T09:52:23.986Z,18.27
2022-09-16T09:53:23.930Z,18.28
2022-09-16T09:54:23.888Z,18.24
2022-09-16T09:55:23.850Z,18.13
2022-09-16T09:56:23.801Z,18.16
2022-09-16T09:57:23.774Z,18.06
2022-09-16T09:58:23.735Z,18.05
2022-09-16T09:59:23.675Z,18.03
2022-09-16T10:00:23.622Z,18.02
2022-09-16T10:01:23.624Z,18.05
2022-09-16T10:02:23.608Z,18.00
2022-09-16T10:03:23.487Z,18.00
2022-09-16T10:04:23.568Z,17.95
2022-09-16T10:05:23.399Z,18.03
2022-09-16T10:06:23.355Z,18.05
2022-09-16T10:07:23.309Z,18.19
2022-09-16T10:08:23.289Z,18.11
2022-09-16T10:09:23.221Z,18.15
2022-09-16T10:10:23.176Z,18.18
2022-09-16T10:11:23.136Z,18.15
2022-09-16T10:12:23.089Z,18.18
2022-09-16T10:13:23.041Z,18.24
2022-09-16T10:14:23.001Z,18.30
2022-09-16T10:15:22.954Z,18.23
2022-09-16T10:16:22.956Z,18.34
2022-09-16T10:17:22.864Z,18.28
2022-09-16T10:18:22.822Z,18.28
2022-09-16T10:19:22.779Z,18.31
2022-09-16T10:20:22.874Z,18.41
2022-09-16T10:21:22.689Z,18.26
2022-09-16T10:22:22.647Z,18.28
2022-09-16T10:23:26.327Z,18.16
2022-09-16T10:24:22.558Z,18.15
2022-09-16T10:25:22.510Z,18.21
2022-09-16T10:26:22.512Z,18.19
2022-09-16T10:27:22.425Z,18.21
2022-09-16T10:28:22.378Z,18.12
2022-09-16T10:29:22.329Z,18.13
2022-09-16T10:31:22.299Z,18.11
2022-09-16T10:32:22.203Z,18.00
2022-09-16T10:33:22.154Z,18.06
2022-09-16T10:34:22.110Z,18.08
2022-09-16T10:35:22.064Z,17.98
2022-09-16T10:36:22.147Z,17.97
2022-09-16T10:37:21.976Z,17.90
2022-09-16T10:38:21.932Z,17.93
2022-09-16T10:39:21.886Z,17.90
2022-09-16T10:40:21.916Z,17.90
2022-09-16T10:41:21.795Z,17.84
2022-09-16T10:42:21.752Z,17.79
2022-09-16T10:43:21.711Z,17.79
2022-09-16T10:44:21.666Z,17.84
2022-09-16T10:45:21.617Z,17.71
2022-09-16T10:46:21.633Z,17.63
2022-09-16T10:47:21.529Z,17.66
2022-09-16T10:48:21.486Z,17.72
2022-09-16T10:49:21.439Z,17.71
2022-09-16T10:50:21.599Z,17.80
2022-09-16T10:51:21.370Z,17.78
2022-09-16T10:52:21.451Z,17.80
2022-09-16T10:53:21.399Z,17.91
2022-09-16T10:54:21.216Z,18.03
2022-09-16T10:55:21.172Z,18.03
2022-09-16T10:56:21.132Z,18.15
2022-09-16T10:57:21.083Z,18.19
2022-09-16T10:58:21.040Z,18.27
2022-09-16T10:59:20.997Z,18.28
2022-09-16T11:00:20.952Z,18.27
2022-09-16T11:01:21.479Z,18.39
2022-09-16T11:03:23.595Z,18.43
2022-09-16T11:04:20.774Z,18.39
2022-09-16T11:05:24.092Z,18.43
2022-09-16T11:06:20.889Z,18.42
2022-09-16T11:07:20.845Z,18.41
2022-09-16T11:08:20.718Z,18.42
2022-09-16T11:09:20.550Z,18.43
2022-09-16T11:10:20.508Z,18.46
2022-09-16T11:11:20.522Z,18.48
2022-09-16T11:12:20.421Z,18.51
2022-09-16T11:13:20.378Z,18.42
2022-09-16T11:14:20.338Z,18.45
2022-09-16T11:15:20.290Z,18.41
2022-09-16T11:16:20.409Z,18.39
2022-09-16T11:17:20.194Z,18.33
2022-09-16T11:18:20.150Z,18.34
2022-09-16T11:19:20.108Z,18.37
2022-09-16T11:20:20.067Z,18.37
2022-09-16T11:21:20.039Z,18.28
2022-09-16T11:22:19.975Z,18.27
2022-09-16T11:23:19.928Z,18.21
2022-09-16T11:24:20.009Z,18.15
2022-09-16T11:25:19.841Z,18.12
2022-09-16T11:26:19.801Z,18.13
2022-09-16T11:27:19.752Z,18.00
2022-09-16T11:28:19.708Z,18.03
2022-09-16T11:29:22.192Z,17.94
2022-09-16T11:30:19.618Z,18.02
2022-09-16T11:31:19.635Z,18.02
2022-09-16T11:32:19.530Z,17.93
2022-09-16T11:33:19.519Z,17.88
2022-09-16T11:34:19.439Z,17.90
2022-09-16T11:35:19.395Z,17.87
2022-09-16T11:36:19.356Z,17.87
2022-09-16T11:37:19.304Z,17.87
2022-09-16T11:38:19.263Z,17.84
2022-09-16T11:39:19.216Z,17.86
2022-09-16T11:40:19.380Z,17.87
2022-09-16T11:41:19.125Z,17.80
2022-09-16T11:42:19.089Z,17.88
2022-09-16T11:43:19.035Z,17.84
2022-09-16T11:44:18.993Z,17.90
2022-09-16T11:45:18.961Z,17.80
2022-09-16T11:46:18.935Z,17.87
2022-09-16T11:47:18.862Z,17.97
2022-09-16T11:48:18.827Z,18.06
2022-09-16T11:49:18.770Z,18.08
2022-09-16T11:50:18.724Z,18.18
2022-09-16T11:51:18.679Z,18.11
2022-09-16T11:52:18.636Z,18.19
2022-09-16T11:53:20.212Z,18.18
2022-09-16T11:54:18.573Z,18.26
2022-09-16T11:55:18.505Z,18.27
2022-09-16T11:56:18.584Z,18.36
2022-09-16T11:57:18.413Z,18.33
2022-09-16T11:58:18.371Z,18.41
2022-09-16T11:59:18.323Z,18.45
2022-09-16T12:00:18.282Z,18.46
2022-09-16T12:02:18.240Z,18.43
2022-09-16T12:03:18.192Z,18.39
2022-09-16T12:04:18.102Z,18.46
2022-09-16T12:05:18.060Z,18.42
2022-09-16T12:06:18.013Z,18.36
2022-09-16T12:07:18.011Z,18.42
2022-09-16T12:08:17.926Z,18.43
2022-09-16T12:09:17.880Z,18.46
2022-09-16T12:10:17.837Z,18.45
2022-09-16T12:11:17.789Z,18.57
2022-09-16T12:12:17.884Z,18.60
2022-09-16T12:13:17.703Z,18.74
2022-09-16T12:14:17.663Z,18.79
2022-09-16T12:15:17.615Z,18.81
2022-09-16T12:17:17.528Z,19.11
2022-09-16T12:18:17.484Z,19.27
2022-09-16T12:19:17.440Z,19.38
2022-09-16T12:20:17.393Z,19.45
2022-09-16T12:21:17.350Z,19.66
2022-09-16T12:22:17.304Z,19.82
2022-09-16T12:23:17.268Z,20.10
2022-09-16T12:24:17.219Z,20.27
2022-09-16T12:25:17.177Z,20.52
2022-09-16T12:26:17.129Z,20.56
2022-09-16T12:27:17.087Z,20.74
2022-09-16T12:28:17.183Z,20.83
2022-09-16T12:29:17.012Z,20.85
2022-09-16T12:30:16.957Z,20.92
2022-09-16T12:31:20.531Z,20.86
2022-09-16T12:32:16.872Z,20.86
2022-09-16T12:33:16.829Z,20.83
2022-09-16T12:34:16.783Z,20.90
2022-09-16T12:35:16.736Z,20.74
2022-09-16T12:36:19.133Z,20.83
2022-09-16T12:37:16.657Z,20.80
2022-09-16T12:38:16.613Z,20.82
2022-09-16T12:39:16.564Z,20.73
2022-09-16T12:40:16.544Z,20.53
2022-09-16T12:41:16.626Z,20.50
2022-09-16T12:42:16.433Z,20.46
2022-09-16T12:43:16.393Z,20.37
2022-09-16T12:44:33.591Z,20.30
2022-09-16T12:45:16.303Z,20.21
2022-09-16T12:46:16.373Z,20.24
2022-09-16T12:47:16.233Z,20.03
2022-09-16T12:48:16.171Z,20.07
2022-09-16T12:49:16.129Z,19.97
2022-09-16T12:50:16.096Z,19.94
2022-09-16T12:51:16.039Z,19.96
2022-09-16T12:52:15.996Z,19.94
2022-09-16T12:53:15.955Z,19.99
2022-09-16T12:54:15.908Z,20.00
2022-09-16T12:55:15.870Z,20.02
2022-09-16T12:56:15.908Z,19.85
2022-09-16T12:57:15.779Z,19.87
2022-09-16T12:58:15.769Z,19.90
2022-09-16T12:59:15.692Z,19.87
2022-09-16T13:00:15.838Z,19.89